Time,TemperatureF,DewpointF,PressureIn,WindDirection,WindDirectionDegrees,WindSpeedMPH,WindSpeedGustMPH,Humidity,HourlyPrecipIn,Conditions,Clouds,dailyrainin,SoftwareType,DateUTC
2013-03-16 00:00:00,60.3,41.0,29.96,West,270,0.0,0.7,49,0.00,,,0.00,pywws,2013-03-16 04:00:00,
2013-03-16 00:02:00,60.3,41.0,29.96,West,270,0.0,0.7,49,0.00,,,0.00,pywws,2013-03-16 04:02:00,
2013-03-16 00:03:00,60.3,41.0,29.96,West,270,0.0,0.7,49,0.00,,,0.00,pywws,2013-03-16 04:03:00,
2013-03-16 00:05:00,60.3,41.0,29.96,West,270,0.0,0.7,49,0.00,,,0.00,pywws,2013-03-16 04:05:00,
2013-03-16 00:10:00,59.4,40.7,29.95,South,180,3.1,4.5,50,0.00,,,0.00,pywws,2013-03-16 04:10:00,
2013-03-16 00:16:00,60.1,40.9,29.94,South,180,0.0,0.0,49,0.00,,,0.00,pywws,2013-03-16 04:16:00,
2013-03-16 00:21:00,59.7,40.5,29.94,SW,225,1.6,2.2,49,0.00,,,0.00,pywws,2013-03-16 04:21:00,
2013-03-16 00:27:00,59.9,40.7,29.94,West,270,1.6,3.1,49,0.00,,,0.00,pywws,2013-03-16 04:27:00,
2013-03-16 00:33:00,60.3,41.0,29.94,WSW,248,1.6,3.1,49,0.00,,,0.00,pywws,2013-03-16 04:33:00,
2013-03-16 00:38:00,60.4,41.2,29.94,North,0,3.8,6.0,49,0.00,,,0.00,pywws,2013-03-16 04:38:00,
2013-03-16 00:44:00,60.4,41.2,29.94,NW,315,3.1,6.0,49,0.00,,,0.00,pywws,2013-03-16 04:44:00,
2013-03-16 00:49:00,60.4,41.2,29.94,SW,225,3.8,5.4,49,0.00,,,0.00,pywws,2013-03-16 04:49:00,
2013-03-16 00:55:00,59.9,40.7,29.94,West,270,2.2,4.5,49,0.00,,,0.00,pywws,2013-03-16 04:55:00,
2013-03-16 01:01:00,59.7,41.0,29.94,South,180,0.7,2.2,50,0.00,,,0.00,pywws,2013-03-16 05:01:00,
2013-03-16 01:06:00,59.4,41.2,29.94,South,180,3.1,4.5,51,0.00,,,0.00,pywws,2013-03-16 05:06:00,
2013-03-16 01:12:00,59.4,41.2,29.94,West,270,2.2,3.1,51,0.00,,,0.00,pywws,2013-03-16 05:12:00,
2013-03-16 01:17:00,59.7,41.0,29.93,SW,225,0.0,0.7,50,0.00,,,0.00,pywws,2013-03-16 05:17:00,
2013-03-16 01:23:00,59.2,41.1,29.93,SW,225,0.7,1.6,51,0.00,,,0.00,pywws,2013-03-16 05:23:00,
2013-03-16 01:29:00,58.3,41.2,29.93,West,270,1.6,2.2,53,0.00,,,0.00,pywws,2013-03-16 05:29:00,
2013-03-16 01:34:00,58.3,41.7,29.93,South,180,0.7,1.6,54,0.00,,,0.00,pywws,2013-03-16 05:34:00,
2013-03-16 01:40:00,57.2,40.7,29.92,SW,225,0.7,2.2,54,0.00,,,0.00,pywws,2013-03-16 05:40:00,
2013-03-16 01:45:00,56.5,41.0,29.92,SW,225,1.6,2.2,56,0.00,,,0.00,pywws,2013-03-16 05:45:00,
2013-03-16 01:51:00,56.7,41.1,29.92,SW,225,1.6,3.1,56,0.00,,,0.00,pywws,2013-03-16 05:51:00,
2013-03-16 01:56:00,56.1,41.1,29.92,SW,225,1.6,2.2,57,0.00,,,0.00,pywws,2013-03-16 05:56:00,
2013-03-16 02:03:00,56.3,41.3,29.92,SW,225,1.6,2.2,57,0.00,,,0.00,pywws,2013-03-16 06:03:00,
2013-03-16 02:09:00,55.6,41.0,29.92,SW,225,1.6,2.2,58,0.00,,,0.00,pywws,2013-03-16 06:09:00,
2013-03-16 02:14:00,55.6,41.0,29.92,SW,225,1.6,2.2,58,0.00,,,0.00,pywws,2013-03-16 06:14:00,
2013-03-16 02:20:00,54.7,40.6,29.93,West,270,1.6,3.1,59,0.00,,,0.00,pywws,2013-03-16 06:20:00,
2013-03-16 02:25:00,54.3,40.7,29.93,West,270,1.6,2.2,60,0.00,,,0.00,pywws,2013-03-16 06:25:00,
2013-03-16 02:31:00,54.1,40.6,29.93,NE,45,0.0,0.7,60,0.00,,,0.00,pywws,2013-03-16 06:31:00,
2013-03-16 02:36:00,53.6,40.1,29.93,South,180,0.7,1.6,60,0.00,,,0.00,pywws,2013-03-16 06:36:00,
2013-03-16 02:41:00,53.1,40.4,29.92,North,0,0.0,0.7,62,0.00,,,0.00,pywws,2013-03-16 06:41:00,
2013-03-16 02:47:00,52.3,39.7,29.92,South,180,0.0,0.0,62,0.00,,,0.00,pywws,2013-03-16 06:47:00,
2013-03-16 02:53:00,51.6,39.8,29.93,South,180,1.6,2.2,64,0.00,,,0.00,pywws,2013-03-16 06:53:00,
2013-03-16 02:58:00,51.4,40.1,29.92,SW,225,0.0,0.7,65,0.00,,,0.00,pywws,2013-03-16 06:58:00,
2013-03-16 03:04:00,51.4,40.1,29.92,South,180,1.6,2.2,65,0.00,,,0.00,pywws,2013-03-16 07:04:00,
2013-03-16 03:09:00,51.1,40.1,29.92,SW,225,0.0,1.6,66,0.00,,,0.00,pywws,2013-03-16 07:09:00,
2013-03-16 03:15:00,51.1,40.1,29.93,SW,225,0.7,1.6,66,0.00,,,0.00,pywws,2013-03-16 07:15:00,
2013-03-16 03:21:00,50.7,39.8,29.93,South,180,2.2,3.1,66,0.00,,,0.00,pywws,2013-03-16 07:21:00,
2013-03-16 03:26:00,50.9,40.0,29.93,SW,225,1.6,2.2,66,0.00,,,0.00,pywws,2013-03-16 07:26:00,
2013-03-16 03:32:00,51.3,40.3,29.92,SW,225,0.7,2.2,66,0.00,,,0.00,pywws,2013-03-16 07:32:00,
2013-03-16 03:37:00,52.0,40.2,29.92,NNE,22,1.6,2.2,64,0.00,,,0.00,pywws,2013-03-16 07:37:00,
2013-03-16 03:43:00,52.5,40.3,29.92,SW,225,0.7,1.6,63,0.00,,,0.00,pywws,2013-03-16 07:43:00,
2013-03-16 03:49:00,52.5,40.3,29.92,NE,45,0.0,0.0,63,0.00,,,0.00,pywws,2013-03-16 07:49:00,
2013-03-16 03:54:00,52.3,40.1,29.92,NW,315,0.0,0.7,63,0.00,,,0.00,pywws,2013-03-16 07:54:00,
2013-03-16 04:00:00,52.3,40.1,29.92,South,180,0.7,1.6,63,0.00,,,0.00,pywws,2013-03-16 08:00:00,
2013-03-16 04:07:00,52.5,40.3,29.92,West,270,0.7,1.6,63,0.00,,,0.00,pywws,2013-03-16 08:07:00,
2013-03-16 04:13:00,52.2,40.0,29.92,South,180,0.0,0.7,63,0.00,,,0.00,pywws,2013-03-16 08:13:00,
2013-03-16 04:18:00,51.6,39.8,29.92,South,180,0.7,1.6,64,0.00,,,0.00,pywws,2013-03-16 08:18:00,
2013-03-16 04:24:00,51.3,39.9,29.91,West,270,0.0,0.7,65,0.00,,,0.00,pywws,2013-03-16 08:24:00,
2013-03-16 04:29:00,51.3,39.9,29.92,South,180,0.7,1.6,65,0.00,,,0.00,pywws,2013-03-16 08:29:00,
2013-03-16 04:35:00,51.3,39.9,29.92,West,270,2.2,3.1,65,0.00,,,0.00,pywws,2013-03-16 08:35:00,
2013-03-16 04:41:00,52.5,40.7,29.91,SW,225,1.6,2.2,64,0.00,,,0.00,pywws,2013-03-16 08:41:00,
2013-03-16 04:46:00,52.7,40.5,29.91,SW,225,0.0,0.7,63,0.00,,,0.00,pywws,2013-03-16 08:46:00,
2013-03-16 04:52:00,52.9,40.6,29.91,South,180,0.7,2.2,63,0.00,,,0.00,pywws,2013-03-16 08:52:00,
2013-03-16 04:57:00,53.8,40.7,29.91,West,270,1.6,2.2,61,0.00,,,0.00,pywws,2013-03-16 08:57:00,
2013-03-16 05:03:00,53.8,40.7,29.91,NW,315,0.0,0.7,61,0.00,,,0.00,pywws,2013-03-16 09:03:00,
2013-03-16 05:09:00,53.6,40.5,29.91,East,90,0.0,0.7,61,0.00,,,0.00,pywws,2013-03-16 09:09:00,
2013-03-16 05:14:00,53.1,40.4,29.91,SE,135,2.2,4.5,62,0.00,,,0.00,pywws,2013-03-16 09:14:00,
2013-03-16 05:20:00,53.8,40.7,29.91,South,180,0.0,0.0,61,0.00,,,0.00,pywws,2013-03-16 09:20:00,
2013-03-16 05:25:00,53.4,40.7,29.91,SW,225,0.7,2.2,62,0.00,,,0.00,pywws,2013-03-16 09:25:00,
2013-03-16 05:31:00,52.7,40.1,29.91,NE,45,0.7,1.6,62,0.00,,,0.00,pywws,2013-03-16 09:31:00,
2013-03-16 05:36:00,52.3,40.1,29.91,SW,225,0.7,1.6,63,0.00,,,0.00,pywws,2013-03-16 09:36:00,
2013-03-16 05:41:00,52.3,40.1,29.92,North,0,0.0,0.0,63,0.00,,,0.00,pywws,2013-03-16 09:41:00,
2013-03-16 05:47:00,51.8,39.6,29.92,West,270,4.5,6.0,63,0.00,,,0.00,pywws,2013-03-16 09:47:00,
2013-03-16 05:53:00,52.5,40.3,29.92,West,270,0.0,1.6,63,0.00,,,0.00,pywws,2013-03-16 09:53:00,
2013-03-16 05:58:00,52.3,40.1,29.92,NE,45,0.0,1.6,63,0.00,,,0.00,pywws,2013-03-16 09:58:00,
2013-03-16 06:04:00,51.8,39.6,29.92,East,90,0.0,0.0,63,0.00,,,0.00,pywws,2013-03-16 10:04:00,
2013-03-16 06:09:00,51.3,39.9,29.92,South,180,0.0,1.6,65,0.00,,,0.00,pywws,2013-03-16 10:09:00,
2013-03-16 06:15:00,50.4,39.0,29.92,SW,225,0.7,2.2,65,0.00,,,0.00,pywws,2013-03-16 10:15:00,
2013-03-16 06:21:00,50.2,39.3,29.92,South,180,1.6,2.2,66,0.00,,,0.00,pywws,2013-03-16 10:21:00,
2013-03-16 06:26:00,50.0,39.5,29.92,SW,225,0.7,1.6,67,0.00,,,0.00,pywws,2013-03-16 10:26:00,
2013-03-16 06:32:00,49.6,39.5,29.92,SW,225,1.6,2.2,68,0.00,,,0.00,pywws,2013-03-16 10:32:00,
2013-03-16 06:37:00,49.8,39.7,29.92,West,270,1.6,2.2,68,0.00,,,0.00,pywws,2013-03-16 10:37:00,
2013-03-16 06:44:00,49.5,39.7,29.92,SW,225,0.0,0.7,69,0.00,,,0.00,pywws,2013-03-16 10:44:00,
2013-03-16 06:49:00,48.9,39.2,29.92,NE,45,0.7,1.6,69,0.00,,,0.00,pywws,2013-03-16 10:49:00,
2013-03-16 06:55:00,48.0,39.1,29.92,South,180,0.0,0.0,71,0.00,,,0.00,pywws,2013-03-16 10:55:00,
2013-03-16 07:01:00,47.7,39.4,29.92,East,90,0.0,0.7,73,0.00,,,0.00,pywws,2013-03-16 11:01:00,
2013-03-16 07:06:00,47.7,39.4,29.92,SW,225,0.7,1.6,73,0.00,,,0.00,pywws,2013-03-16 11:06:00,
2013-03-16 07:12:00,47.5,39.3,29.93,South,180,0.0,0.7,73,0.00,,,0.00,pywws,2013-03-16 11:12:00,
2013-03-16 07:17:00,47.5,39.6,29.92,SW,225,0.0,0.7,74,0.00,,,0.00,pywws,2013-03-16 11:17:00,
2013-03-16 07:24:00,47.3,39.4,29.93,South,180,0.7,1.6,74,0.00,,,0.00,pywws,2013-03-16 11:24:00,
2013-03-16 07:29:00,47.5,40.0,29.93,SW,225,2.2,3.1,75,0.00,,,0.00,pywws,2013-03-16 11:29:00,
2013-03-16 07:35:00,47.3,39.8,29.93,SW,225,2.2,3.8,75,0.00,,,0.00,pywws,2013-03-16 11:35:00,
2013-03-16 07:41:00,47.5,40.0,29.93,South,180,0.7,1.6,75,0.00,,,0.00,pywws,2013-03-16 11:41:00,
2013-03-16 07:46:00,47.5,40.0,29.93,SW,225,0.7,1.6,75,0.00,,,0.00,pywws,2013-03-16 11:46:00,
2013-03-16 07:52:00,47.5,40.0,29.93,South,180,0.7,1.6,75,0.00,,,0.00,pywws,2013-03-16 11:52:00,
2013-03-16 07:57:00,47.3,39.8,29.93,NW,315,0.0,0.7,75,0.00,,,0.00,pywws,2013-03-16 11:57:00,
2013-03-16 08:03:00,46.9,39.4,29.93,SW,225,0.0,0.7,75,0.00,,,0.00,pywws,2013-03-16 12:03:00,
2013-03-16 08:09:00,46.9,39.4,29.92,South,180,0.0,1.6,75,0.00,,,0.00,pywws,2013-03-16 12:09:00,
2013-03-16 08:14:00,46.9,39.4,29.92,SW,225,0.0,1.6,75,0.00,,,0.00,pywws,2013-03-16 12:14:00,
2013-03-16 08:20:00,46.9,39.4,29.92,SW,225,0.0,1.6,75,0.00,,,0.00,pywws,2013-03-16 12:20:00,
2013-03-16 08:25:00,47.7,40.1,29.92,East,90,0.7,3.8,75,0.00,,,0.00,pywws,2013-03-16 12:25:00,
2013-03-16 08:31:00,47.8,40.3,29.92,NE,45,0.7,1.6,75,0.00,,,0.00,pywws,2013-03-16 12:31:00,
2013-03-16 08:37:00,48.2,40.3,29.92,NW,315,1.6,2.2,74,0.00,,,0.00,pywws,2013-03-16 12:37:00,
2013-03-16 08:42:00,49.3,41.0,29.92,South,180,0.0,0.7,73,0.00,,,0.00,pywws,2013-03-16 12:42:00,
2013-03-16 08:48:00,50.0,40.6,29.92,NE,45,0.7,1.6,70,0.00,,,0.00,pywws,2013-03-16 12:48:00,
2013-03-16 08:53:00,50.9,41.1,29.93,SE,135,0.0,0.0,69,0.00,,,0.00,pywws,2013-03-16 12:53:00,
2013-03-16 08:59:00,52.3,41.3,29.92,East,90,0.0,0.7,66,0.00,,,0.00,pywws,2013-03-16 12:59:00,
2013-03-16 09:05:00,53.8,41.9,29.92,NE,45,0.0,0.0,64,0.00,,,0.00,pywws,2013-03-16 13:05:00,
2013-03-16 09:10:00,55.0,43.1,29.93,NE,45,1.6,2.2,64,0.00,,,0.00,pywws,2013-03-16 13:10:00,
2013-03-16 09:16:00,56.3,42.6,29.92,North,0,1.6,3.1,60,0.00,,,0.00,pywws,2013-03-16 13:16:00,
2013-03-16 09:22:00,57.2,42.1,29.93,South,180,0.0,0.7,57,0.00,,,0.00,pywws,2013-03-16 13:22:00,
2013-03-16 09:28:00,59.7,42.6,29.93,SW,225,3.8,5.4,53,0.00,,,0.00,pywws,2013-03-16 13:28:00,
2013-03-16 09:33:00,62.2,41.8,29.92,SW,225,3.1,4.5,47,0.00,,,0.00,pywws,2013-03-16 13:33:00,
2013-03-16 09:39:00,63.7,40.8,29.92,South,180,3.1,4.5,43,0.00,,,0.00,pywws,2013-03-16 13:39:00,
2013-03-16 09:45:00,64.8,41.7,29.92,West,270,2.2,5.4,43,0.00,,,0.00,pywws,2013-03-16 13:45:00,
2013-03-16 09:50:00,64.9,41.3,29.92,South,180,2.2,3.1,42,0.00,,,0.00,pywws,2013-03-16 13:50:00,
2013-03-16 09:56:00,65.8,41.5,29.92,West,270,1.6,3.1,41,0.00,,,0.00,pywws,2013-03-16 13:56:00,
2013-03-16 10:01:00,66.4,41.3,29.92,West,270,2.2,5.4,40,0.00,,,0.00,pywws,2013-03-16 14:01:00,
2013-03-16 10:07:00,67.6,42.4,29.92,South,180,1.6,3.1,40,0.00,,,0.00,pywws,2013-03-16 14:07:00,
2013-03-16 10:13:00,68.5,41.2,29.92,West,270,5.4,6.9,37,0.00,,,0.00,pywws,2013-03-16 14:13:00,
2013-03-16 10:18:00,68.7,42.1,29.92,West,270,2.2,3.1,38,0.00,,,0.00,pywws,2013-03-16 14:18:00,
2013-03-16 10:24:00,69.4,42.0,29.92,NW,315,1.6,3.8,37,0.00,,,0.00,pywws,2013-03-16 14:24:00,
2013-03-16 10:29:00,69.8,41.6,29.92,SW,225,6.0,9.8,36,0.00,,,0.00,pywws,2013-03-16 14:29:00,
2013-03-16 10:35:00,68.9,42.2,29.92,SW,225,4.5,9.2,38,0.00,,,0.00,pywws,2013-03-16 14:35:00,
2013-03-16 10:41:00,69.3,41.9,29.92,SW,225,4.5,5.4,37,0.00,,,0.00,pywws,2013-03-16 14:41:00,
2013-03-16 10:46:00,69.4,42.7,29.91,SW,225,1.6,3.8,38,0.00,,,0.00,pywws,2013-03-16 14:46:00,
2013-03-16 10:52:00,69.4,42.0,29.91,South,180,5.4,6.9,37,0.00,,,0.00,pywws,2013-03-16 14:52:00,
2013-03-16 10:57:00,70.2,42.0,29.91,South,180,3.8,4.5,36,0.00,,,0.00,pywws,2013-03-16 14:57:00,
2013-03-16 11:03:00,70.2,42.0,29.91,NW,315,3.1,6.0,36,0.00,,,0.00,pywws,2013-03-16 15:03:00,
2013-03-16 11:09:00,70.7,42.4,29.91,SW,225,3.8,5.4,36,0.00,,,0.00,pywws,2013-03-16 15:09:00,
2013-03-16 11:14:00,70.9,42.6,29.91,West,270,5.4,8.3,36,0.00,,,0.00,pywws,2013-03-16 15:14:00,
2013-03-16 11:20:00,71.2,42.9,29.91,NE,45,2.2,4.5,36,0.00,,,0.00,pywws,2013-03-16 15:20:00,
2013-03-16 11:25:00,71.4,42.3,29.90,South,180,3.1,4.5,35,0.00,,,0.00,pywws,2013-03-16 15:25:00,
2013-03-16 11:31:00,71.6,42.5,29.91,South,180,3.8,6.9,35,0.00,,,0.00,pywws,2013-03-16 15:31:00,
2013-03-16 11:37:00,71.8,41.9,29.91,NW,315,5.4,9.2,34,0.00,,,0.00,pywws,2013-03-16 15:37:00,
2013-03-16 11:42:00,71.4,43.8,29.90,South,180,9.2,15.2,37,0.00,,,0.00,pywws,2013-03-16 15:42:00,
2013-03-16 11:48:00,72.0,42.8,29.90,NE,45,2.2,7.6,35,0.00,,,0.00,pywws,2013-03-16 15:48:00,
2013-03-16 11:53:00,72.0,42.8,29.90,SW,225,2.2,3.8,35,0.00,,,0.00,pywws,2013-03-16 15:53:00,
2013-03-16 11:59:00,72.0,42.8,29.90,SW,225,6.0,11.4,35,0.00,,,0.00,pywws,2013-03-16 15:59:00,
2013-03-16 12:05:00,71.8,42.6,29.89,West,270,6.9,10.7,35,0.00,,,0.00,pywws,2013-03-16 16:05:00,
2013-03-16 12:10:00,72.0,42.8,29.89,South,180,3.8,6.0,35,0.00,,,0.00,pywws,2013-03-16 16:10:00,
2013-03-16 12:16:00,71.8,42.6,29.89,NW,315,6.0,9.8,35,0.00,,,0.00,pywws,2013-03-16 16:16:00,
2013-03-16 12:21:00,72.5,43.3,29.89,SW,225,9.2,11.4,35,0.00,,,0.00,pywws,2013-03-16 16:21:00,
2013-03-16 12:27:00,73.6,44.2,29.89,North,0,5.4,7.6,35,0.00,,,0.00,pywws,2013-03-16 16:27:00,
2013-03-16 12:33:00,74.8,45.3,29.89,SW,225,6.9,9.8,35,0.00,,,0.00,pywws,2013-03-16 16:33:00,
2013-03-16 12:38:00,73.8,44.4,29.88,SW,225,3.8,6.0,35,0.00,,,0.00,pywws,2013-03-16 16:38:00,
2013-03-16 12:44:00,74.1,44.7,29.88,SW,225,3.1,5.4,35,0.00,,,0.00,pywws,2013-03-16 16:44:00,
2013-03-16 12:49:00,74.1,44.7,29.88,West,270,6.0,8.3,35,0.00,,,0.00,pywws,2013-03-16 16:49:00,
2013-03-16 12:55:00,73.6,44.2,29.88,SW,225,3.1,6.0,35,0.00,,,0.00,pywws,2013-03-16 16:55:00,
2013-03-16 13:01:00,73.9,44.5,29.87,SW,225,3.8,6.9,35,0.00,,,0.00,pywws,2013-03-16 17:01:00,
2013-03-16 13:06:00,73.2,42.4,29.87,SSW,202,6.0,7.6,33,0.00,,,0.00,pywws,2013-03-16 17:06:00,
2013-03-16 13:12:00,74.1,44.7,29.87,SW,225,5.4,6.9,35,0.00,,,0.00,pywws,2013-03-16 17:12:00,
2013-03-16 13:17:00,75.6,46.0,29.87,West,270,3.1,5.4,35,0.00,,,0.00,pywws,2013-03-16 17:17:00,
2013-03-16 13:23:00,74.7,44.4,29.87,South,180,3.8,6.0,34,0.00,,,0.00,pywws,2013-03-16 17:23:00,
2013-03-16 13:29:00,74.5,45.0,29.86,South,180,6.9,9.2,35,0.00,,,0.00,pywws,2013-03-16 17:29:00,
2013-03-16 13:34:00,74.5,44.3,29.86,South,180,7.6,11.4,34,0.00,,,0.00,pywws,2013-03-16 17:34:00,
2013-03-16 13:40:00,73.9,44.5,29.86,South,180,4.5,9.8,35,0.00,,,0.00,pywws,2013-03-16 17:40:00,
2013-03-16 13:45:00,75.7,45.4,29.86,SW,225,9.8,13.6,34,0.00,,,0.00,pywws,2013-03-16 17:45:00,
2013-03-16 13:51:00,75.7,42.9,29.86,SW,225,2.2,4.5,31,0.00,,,0.00,pywws,2013-03-16 17:51:00,
2013-03-16 13:57:00,75.2,43.3,29.86,NW,315,8.3,19.0,32,0.00,,,0.00,pywws,2013-03-16 17:57:00,
2013-03-16 14:02:00,75.4,44.3,29.85,NW,315,7.6,12.1,33,0.00,,,0.00,pywws,2013-03-16 18:02:00,
2013-03-16 14:07:00,76.3,45.0,29.85,SW,225,1.6,4.5,33,0.00,,,0.00,pywws,2013-03-16 18:07:00,
2013-03-16 14:13:00,78.1,42.3,29.85,South,180,16.8,23.5,28,0.00,,,0.00,pywws,2013-03-16 18:13:00,
2013-03-16 14:18:00,77.9,41.2,29.85,SW,225,2.2,4.5,27,0.00,,,0.00,pywws,2013-03-16 18:18:00,
2013-03-16 14:24:00,77.9,41.2,29.84,South,180,6.9,9.2,27,0.00,,,0.00,pywws,2013-03-16 18:24:00,
2013-03-16 14:29:00,78.3,42.5,29.84,NW,315,3.1,3.8,28,0.00,,,0.00,pywws,2013-03-16 18:29:00,
2013-03-16 14:35:00,79.5,40.6,29.84,SW,225,5.4,7.6,25,0.00,,,0.00,pywws,2013-03-16 18:35:00,
2013-03-16 14:41:00,78.3,40.5,29.84,SW,225,3.1,5.4,26,0.00,,,0.00,pywws,2013-03-16 18:41:00,
2013-03-16 14:46:00,78.8,42.0,29.83,South,180,3.8,6.9,27,0.00,,,0.00,pywws,2013-03-16 18:46:00,
2013-03-16 14:52:00,80.1,42.1,29.84,South,180,1.6,3.1,26,0.00,,,0.00,pywws,2013-03-16 18:52:00,
2013-03-16 14:57:00,81.3,40.0,29.83,SW,225,6.9,9.8,23,0.00,,,0.00,pywws,2013-03-16 18:57:00,
2013-03-16 15:03:00,81.0,39.7,29.83,NE,45,0.0,0.7,23,0.00,,,0.00,pywws,2013-03-16 19:03:00,
2013-03-16 15:09:00,81.1,42.0,29.83,SW,225,3.1,4.5,25,0.00,,,0.00,pywws,2013-03-16 19:09:00,
2013-03-16 15:14:00,81.5,42.3,29.83,NW,315,0.7,2.2,25,0.00,,,0.00,pywws,2013-03-16 19:14:00,
2013-03-16 15:20:00,82.4,45.0,29.83,West,270,3.8,5.4,27,0.00,,,0.00,pywws,2013-03-16 19:20:00,
2013-03-16 15:25:00,81.7,41.4,29.83,North,0,1.6,2.2,24,0.00,,,0.00,pywws,2013-03-16 19:25:00,
2013-03-16 15:31:00,81.5,40.1,29.83,WSW,248,0.7,2.2,23,0.00,,,0.00,pywws,2013-03-16 19:31:00,
2013-03-16 15:37:00,82.2,41.8,29.82,West,270,0.7,2.2,24,0.00,,,0.00,pywws,2013-03-16 19:37:00,
2013-03-16 15:42:00,81.3,40.0,29.83,East,90,1.6,3.1,23,0.00,,,0.00,pywws,2013-03-16 19:42:00,
2013-03-16 15:48:00,82.2,40.7,29.82,ENE,68,1.6,2.2,23,0.00,,,0.00,pywws,2013-03-16 19:48:00,
2013-03-16 15:53:00,81.7,39.1,29.83,East,90,0.7,2.2,22,0.00,,,0.00,pywws,2013-03-16 19:53:00,
2013-03-16 15:59:00,82.9,44.5,29.82,NE,45,2.2,3.8,26,0.00,,,0.00,pywws,2013-03-16 19:59:00,
2013-03-16 16:05:00,81.3,40.0,29.82,NE,45,1.6,2.2,23,0.00,,,0.00,pywws,2013-03-16 20:05:00,
2013-03-16 16:10:00,81.7,41.4,29.82,SE,135,0.7,2.2,24,0.00,,,0.00,pywws,2013-03-16 20:10:00,
2013-03-16 16:16:00,82.2,40.7,29.82,NE,45,1.6,3.8,23,0.00,,,0.00,pywws,2013-03-16 20:16:00,
2013-03-16 16:21:00,82.0,40.6,29.82,NW,315,3.1,4.5,23,0.00,,,0.00,pywws,2013-03-16 20:21:00,
2013-03-16 16:27:00,81.3,40.0,29.82,North,0,0.0,0.7,23,0.00,,,0.00,pywws,2013-03-16 20:27:00,
2013-03-16 16:33:00,79.3,40.4,29.82,NE,45,3.1,3.8,25,0.00,,,0.00,pywws,2013-03-16 20:33:00,
2013-03-16 16:38:00,78.6,41.8,29.82,NE,45,2.2,3.1,27,0.00,,,0.00,pywws,2013-03-16 20:38:00,
2013-03-16 16:44:00,77.5,41.8,29.82,East,90,0.7,1.6,28,0.00,,,0.00,pywws,2013-03-16 20:44:00,
2013-03-16 16:50:00,77.9,41.2,29.82,NE,45,0.0,0.7,27,0.00,,,0.00,pywws,2013-03-16 20:50:00,
2013-03-16 16:56:00,77.5,40.9,29.82,North,0,0.0,0.7,27,0.00,,,0.00,pywws,2013-03-16 20:56:00,
2013-03-16 17:01:00,79.5,42.6,29.82,NE,45,0.7,3.1,27,0.00,,,0.00,pywws,2013-03-16 21:01:00,
2013-03-16 17:07:00,79.3,41.5,29.81,West,270,0.7,2.2,26,0.00,,,0.00,pywws,2013-03-16 21:07:00,
2013-03-16 17:13:00,79.0,40.1,29.81,South,180,3.8,4.5,25,0.00,,,0.00,pywws,2013-03-16 21:13:00,
2013-03-16 17:18:00,78.1,41.4,29.82,South,180,6.0,9.8,27,0.00,,,0.00,pywws,2013-03-16 21:18:00,
2013-03-16 17:24:00,77.5,40.9,29.82,SW,225,6.0,7.6,27,0.00,,,0.00,pywws,2013-03-16 21:24:00,
2013-03-16 17:29:00,76.6,41.1,29.82,WSW,248,3.8,6.9,28,0.00,,,0.00,pywws,2013-03-16 21:29:00,
2013-03-16 17:35:00,78.1,39.4,29.82,SW,225,6.9,8.3,25,0.00,,,0.00,pywws,2013-03-16 21:35:00,
2013-03-16 17:41:00,78.6,40.8,29.82,East,90,3.8,6.0,26,0.00,,,0.00,pywws,2013-03-16 21:41:00,
2013-03-16 17:46:00,79.0,39.1,29.82,West,270,4.5,7.6,24,0.00,,,0.00,pywws,2013-03-16 21:46:00,
2013-03-16 17:52:00,78.4,39.7,29.82,West,270,3.8,6.0,25,0.00,,,0.00,pywws,2013-03-16 21:52:00,
2013-03-16 17:57:00,80.2,40.1,29.82,South,180,5.4,8.3,24,0.00,,,0.00,pywws,2013-03-16 21:57:00,
2013-03-16 18:03:00,80.6,39.4,29.82,South,180,3.8,5.4,23,0.00,,,0.00,pywws,2013-03-16 22:03:00,
2013-03-16 18:09:00,79.2,38.2,29.83,WSW,248,5.4,9.2,23,0.00,,,0.00,pywws,2013-03-16 22:09:00,
2013-03-16 18:14:00,78.8,38.9,29.83,NW,315,10.7,16.8,24,0.00,,,0.00,pywws,2013-03-16 22:14:00,
2013-03-16 18:20:00,78.1,40.4,29.83,West,270,4.5,7.6,26,0.00,,,0.00,pywws,2013-03-16 22:20:00,
2013-03-16 18:25:00,77.9,40.2,29.83,West,270,7.6,11.4,26,0.00,,,0.00,pywws,2013-03-16 22:25:00,
2013-03-16 18:31:00,76.8,40.3,29.83,SW,225,3.8,5.4,27,0.00,,,0.00,pywws,2013-03-16 22:31:00,
2013-03-16 18:37:00,75.6,41.1,29.84,SW,225,3.1,4.5,29,0.00,,,0.00,pywws,2013-03-16 22:37:00,
2013-03-16 18:42:00,74.8,41.3,29.84,NNE,22,0.7,2.2,30,0.00,,,0.00,pywws,2013-03-16 22:42:00,
2013-03-16 18:48:00,74.1,41.5,29.84,NW,315,4.5,5.4,31,0.00,,,0.00,pywws,2013-03-16 22:48:00,
2013-03-16 18:53:00,73.8,41.2,29.84,SSE,158,6.9,9.8,31,0.00,,,0.00,pywws,2013-03-16 22:53:00,
2013-03-16 18:59:00,73.4,41.7,29.85,SE,135,3.8,9.2,32,0.00,,,0.00,pywws,2013-03-16 22:59:00,
2013-03-16 19:05:00,73.0,41.4,29.85,NE,45,1.6,3.1,32,0.00,,,0.00,pywws,2013-03-16 23:05:00,
2013-03-16 19:10:00,72.5,41.7,29.86,North,0,0.0,1.6,33,0.00,,,0.00,pywws,2013-03-16 23:10:00,
2013-03-16 19:16:00,71.8,41.9,29.87,NW,315,0.7,3.1,34,0.00,,,0.00,pywws,2013-03-16 23:16:00,
2013-03-16 19:21:00,71.1,42.7,29.87,NW,315,1.6,2.2,36,0.00,,,0.00,pywws,2013-03-16 23:21:00,
2013-03-16 19:27:00,70.5,43.0,29.87,North,0,1.6,3.1,37,0.00,,,0.00,pywws,2013-03-16 23:27:00,
2013-03-16 19:33:00,70.2,43.4,29.87,North,0,0.7,1.6,38,0.00,,,0.00,pywws,2013-03-16 23:33:00,
2013-03-16 19:38:00,69.6,43.6,29.87,NE,45,0.7,1.6,39,0.00,,,0.00,pywws,2013-03-16 23:38:00,
2013-03-16 19:44:00,69.3,43.9,29.87,NW,315,1.6,2.2,40,0.00,,,0.00,pywws,2013-03-16 23:44:00,
2013-03-16 19:49:00,68.9,44.2,29.88,East,90,0.7,1.6,41,0.00,,,0.00,pywws,2013-03-16 23:49:00,
2013-03-16 19:55:00,68.5,44.5,29.88,NE,45,0.7,2.2,42,0.00,,,0.00,pywws,2013-03-16 23:55:00,
2013-03-16 20:01:00,68.2,44.8,29.88,North,0,0.7,1.6,43,0.00,,,0.00,pywws,2013-03-17 00:01:00,
2013-03-16 20:06:00,68.0,44.7,29.89,NE,45,0.7,2.2,43,0.00,,,0.00,pywws,2013-03-17 00:06:00,
2013-03-16 20:12:00,67.8,45.1,29.89,NNE,22,0.7,2.2,44,0.00,,,0.00,pywws,2013-03-17 00:12:00,
2013-03-16 20:18:00,67.8,45.1,29.90,NE,45,0.7,3.1,44,0.00,,,0.00,pywws,2013-03-17 00:18:00,
2013-03-16 20:24:00,67.8,45.1,29.89,NE,45,0.0,0.7,44,0.00,,,0.00,pywws,2013-03-17 00:24:00,
2013-03-16 20:29:00,67.5,45.4,29.90,NE,45,0.7,1.6,45,0.00,,,0.00,pywws,2013-03-17 00:29:00,
2013-03-16 20:36:00,67.5,45.4,29.90,NE,45,0.0,1.6,45,0.00,,,0.00,pywws,2013-03-17 00:36:00,
2013-03-16 20:41:00,67.3,45.2,29.91,North,0,0.0,0.7,45,0.00,,,0.00,pywws,2013-03-17 00:41:00,
2013-03-16 20:47:00,67.1,45.0,29.91,East,90,0.7,1.6,45,0.00,,,0.00,pywws,2013-03-17 00:47:00,
2013-03-16 20:53:00,66.9,44.9,29.91,East,90,0.7,1.6,45,0.00,,,0.00,pywws,2013-03-17 00:53:00,
2013-03-16 20:58:00,66.9,45.5,29.91,NE,45,0.7,1.6,46,0.00,,,0.00,pywws,2013-03-17 00:58:00,
2013-03-16 21:04:00,66.6,45.1,29.91,NE,45,0.0,0.7,46,0.00,,,0.00,pywws,2013-03-17 01:04:00,
2013-03-16 21:10:00,66.4,45.0,29.91,East,90,0.0,0.7,46,0.00,,,0.00,pywws,2013-03-17 01:10:00,
2013-03-16 21:16:00,66.2,44.8,29.92,North,0,0.0,0.0,46,0.00,,,0.00,pywws,2013-03-17 01:16:00,
2013-03-16 21:21:00,66.0,45.2,29.92,NE,45,1.6,3.1,47,0.00,,,0.00,pywws,2013-03-17 01:21:00,
2013-03-16 21:27:00,65.8,45.6,29.92,NW,315,0.0,0.7,48,0.00,,,0.00,pywws,2013-03-17 01:27:00,
2013-03-16 21:33:00,65.5,45.3,29.92,North,0,0.0,0.0,48,0.00,,,0.00,pywws,2013-03-17 01:33:00,
2013-03-16 21:38:00,65.3,45.1,29.92,NW,315,0.7,1.6,48,0.00,,,0.00,pywws,2013-03-17 01:38:00,
2013-03-16 21:44:00,64.9,44.8,29.93,East,90,0.0,0.7,48,0.00,,,0.00,pywws,2013-03-17 01:44:00,
2013-03-16 21:49:00,64.6,45.0,29.92,North,0,0.0,0.0,49,0.00,,,0.00,pywws,2013-03-17 01:49:00,
2013-03-16 21:55:00,64.4,44.8,29.93,South,180,0.7,1.6,49,0.00,,,0.00,pywws,2013-03-17 01:55:00,
2013-03-16 22:01:00,64.2,45.2,29.93,NE,45,0.0,0.7,50,0.00,,,0.00,pywws,2013-03-17 02:01:00,
2013-03-16 22:06:00,64.2,45.2,29.93,NE,45,0.0,0.7,50,0.00,,,0.00,pywws,2013-03-17 02:06:00,
2013-03-16 22:12:00,63.9,44.9,29.93,South,180,0.0,1.6,50,0.00,,,0.00,pywws,2013-03-17 02:12:00,
2013-03-16 22:17:00,63.7,45.2,29.93,NE,45,0.0,0.7,51,0.00,,,0.00,pywws,2013-03-17 02:17:00,
2013-03-16 22:22:00,63.5,45.0,29.93,North,0,1.6,2.2,51,0.00,,,0.00,pywws,2013-03-17 02:22:00,
2013-03-16 22:28:00,63.7,45.2,29.93,SE,135,0.0,0.7,51,0.00,,,0.00,pywws,2013-03-17 02:28:00,
2013-03-16 22:33:00,63.7,45.2,29.94,East,90,0.0,0.0,51,0.00,,,0.00,pywws,2013-03-17 02:33:00,
2013-03-16 22:39:00,63.5,45.0,29.94,SW,225,1.6,3.1,51,0.00,,,0.00,pywws,2013-03-17 02:39:00,
2013-03-16 22:45:00,63.1,44.7,29.94,West,270,0.7,1.6,51,0.00,,,0.00,pywws,2013-03-17 02:45:00,
2013-03-16 22:50:00,62.8,44.4,29.94,South,180,0.0,0.0,51,0.00,,,0.00,pywws,2013-03-17 02:50:00,
2013-03-16 22:56:00,62.2,44.4,29.94,SE,135,0.0,0.7,52,0.00,,,0.00,pywws,2013-03-17 02:56:00,
2013-03-16 23:01:00,62.1,44.7,29.94,SE,135,0.0,0.7,53,0.00,,,0.00,pywws,2013-03-17 03:01:00,
2013-03-16 23:07:00,61.5,44.2,29.94,SW,225,3.1,3.8,53,0.00,,,0.00,pywws,2013-03-17 03:07:00,
2013-03-16 23:13:00,60.8,44.5,29.94,SW,225,0.0,0.7,55,0.00,,,0.00,pywws,2013-03-17 03:13:00,
2013-03-16 23:18:00,60.6,44.8,29.94,West,270,1.6,3.1,56,0.00,,,0.00,pywws,2013-03-17 03:18:00,
2013-03-16 23:24:00,61.2,44.4,29.94,SW,225,2.2,3.1,54,0.00,,,0.00,pywws,2013-03-17 03:24:00,
2013-03-16 23:29:00,60.4,44.7,29.94,SW,225,3.1,3.8,56,0.00,,,0.00,pywws,2013-03-17 03:29:00,
2013-03-16 23:35:00,60.1,44.8,29.95,SW,225,1.6,2.2,57,0.00,,,0.00,pywws,2013-03-17 03:35:00,
2013-03-16 23:41:00,59.7,44.9,29.95,SW,225,2.2,3.1,58,0.00,,,0.00,pywws,2013-03-17 03:41:00,
2013-03-16 23:46:00,59.4,44.6,29.95,SW,225,1.6,3.1,58,0.00,,,0.00,pywws,2013-03-17 03:46:00,
2013-03-16 23:51:00,59.5,44.7,29.95,SW,225,1.6,3.1,58,0.00,,,0.00,pywws,2013-03-17 03:51:00,
2013-03-16 23:57:00,59.5,44.7,29.95,West,270,0.7,1.6,58,0.00,,,0.00,pywws,2013-03-17 03:57:00,